Waco, TX

11:07 PM CST en Diciembre 22, 2014 (GMT -0600)
Greenleaf Peninsula | Change Station
CLOSE
Current Station
Estación meteorológica personal
Location: Waco, TX
Altura: 580 ft
Estaciones meteorológicas cercanas

Alt 580 ft 31.56 °N, 97.20 °W | Updated 22 minutes ago

Muy nublado
Muy nublado
56.4 ° F
Sensación térmica 56.4 ° F
N
1.0
Viento Variable Viento desde Norte
Gusts 3.0 mph

Hoy
Alta -- | Baja -- ° F
--% Posibilidad de precipitaciones
Ayer
Alta -- | Baja -- ° F
Precip. -- pul
7:24 AM 5:30 PM
Luna nueva, 2% visible
Presión 29.67 pul
Visibilidad 10.0 Millas
Nubes Despejado
Punto de rocío 45 ° F
Humedad 65%
Precipitaciones 0.00 pul
Espesor de la nieve No disponible.
UV 0 de una escala de 12
Polen 10.30 de una escala de 12
Calidad del aire No disponible.
Flu Activity No disponible.
METAR KACT 230451Z 05003KT 10SM CLR 12/07 A2968 RMK AO2 SLP045 T01170067

More Conditions Fewer Conditions

Presión 29.67 pul
Visibilidad 10.0 Millas
Nubes Despejado
Punto de rocío 45 ° F
Humedad 65%
Precipitaciones 0.00 pul
Espesor de la nieve No disponible.
UV 0 de una escala de 12
Polen 10.30 de una escala de 12
Calidad del aire No disponible.
Flu Activity No disponible.
METAR KACT 230451Z 05003KT 10SM CLR 12/07 A2968 RMK AO2 SLP045 T01170067

More Conditions Fewer Conditions

Nowcast | as of 9:56 PM CST on December 22, 2014

An area of mostly light rain...occurring west of a Mineral Wells to Nocona line at 10 PM...will spread east along and north of I-20 to a Sherman to McKinney line by 2 am. Only light rainfall is expected with amounts generally several hundredths of an inch over 2 or 3 hours.

×

10-Day Weather Forecast

Almanac

Astronomía

Dec. 22, 2014 Salida Puesta
Hora real
Crepúsculo civil
Crepúsculo náutico
Crepúsculo astronómico
Luna
Horas de luz
Horas de luz
Tomorrow will be .
, % of the Moon is Illuminated

Extremos de hoy

Máximos del estado Bajos del estado

Community

WunderPhotos

Upload Photos

1,779,780 ¡fotos cargadas!

WunderBlogs® & News

Nearby

Calidad del aire

  Calidad del aire Índice AQ Contaminante
Not available.

Grosos de nieve

Estación Profundido Altura

Actividad de terremotos

Ciudad Distance Mag. Tiempo y dato
Magnitud mínima muestra es 2,5.

Temperaturas de aguas costeras

Lugar Temperatura

Estaciones meteorológicas cercanas